Saigon Express — VRBT7 — position and weather

sailwx.info

Track history (hours):
 
Tides and Currents Weather Stations Pressure Air Temp Water Temp Dewpoint Dewpoint Depression Visibility Wind Speed Wind Dir Waves Ship Positions

Saigon Express

Last reported at 2014-Nov-01 08:04 UTC. Time now 2014-Nov-23 16:08 UTC.
Position N 36°19' E 014°38'.
Warning: this ship's position is 22 days out of date.

Length 260 m; draft 11.8 m.

Type: Ship (hazmat cat A). MMSI: 477106800.

Date/timePositionNaut miles runAvg speedWind from/ knotsBaromVisibWave heightAir tempDewpointWater temp
2014-Nov-01 08:04N 36°19' E 014°38'1019.0
2014-Nov-01 07:33N 36°21' E 014°27'1616.3
2014-Nov-01 06:33N 36°28' E 014°08'1615.6
2014-Nov-01 05:33N 36°32' E 013°50'55915.4
2014-Oct-30 17:17N 37°09' E 002°13'1316.5
2014-Oct-30 16:30N 37°06' E 001°57'3316.0
2014-Oct-30 14:27N 36°59' E 001°17'1415.6
2014-Oct-30 13:32N 36°56' E 000°59'3815.9
2014-Oct-30 11:08N 36°47' E 000°13'26515.7
2014-Oct-29 18:16N 36°00' W 005°11'1115.4
2014-Oct-29 17:33N 35°58' W 005°24'10515.0
2014-Oct-29 10:33N 35°54' W 007°34'3815.4
2014-Oct-29 08:04N 35°54' W 008°21'1315.6
2014-Oct-29 07:15N 35°54' W 008°37'1115.9
2014-Oct-29 06:33N 35°54' W 008°51'1615.8
2014-Oct-29 05:33N 35°55' W 009°10'  
2014-Oct-26 23:33N 39°12' W 026°39'1616.0
2014-Oct-26 22:33N 39°13' W 026°60'1615.7
2014-Oct-26 21:33N 39°16' W 027°20'1615.6
2014-Oct-26 20:34N 39°18' W 027°40'1615.8
2014-Oct-26 19:33N 39°19' W 028°00'1615.8
2014-Oct-26 18:33N 39°17' W 028°20'1615.5
2014-Oct-26 17:33N 39°15' W 028°40'1615.6
2014-Oct-26 16:34N 39°13' W 029°00'1616.0
2014-Oct-26 15:33N 39°10' W 029°20'1615.7
2014-Oct-26 14:33N 39°07' W 029°40'1616.0
2014-Oct-26 13:33N 39°05' W 030°01'1615.8
2014-Oct-26 12:33N 39°05' W 030°21'1615.9
2014-Oct-26 11:33N 39°05' W 030°42'1616.0
2014-Oct-26 10:33N 39°05' W 031°02'1615.9
2014-Oct-26 09:33N 39°05' W 031°23'1715.9
2014-Oct-26 08:31N 39°05' W 031°44'1515.8
2014-Oct-26 07:33N 39°05' W 032°03'  
Track history (hours):
 
Tides and Currents Weather Stations Pressure Air Temp Water Temp Dewpoint Dewpoint Depression Visibility Wind Speed Wind Dir Waves Ship Positions

Saigon Express

Last reported at 2014-Nov-01 08:04 UTC. Time now 2014-Nov-23 16:08 UTC.
Position N 36°19' E 014°38'.
Warning: this ship's position is 22 days out of date.

Length 260 m; draft 11.8 m.

Type: Ship (hazmat cat A). MMSI: 477106800.

Date/timePositionNaut miles runAvg speedWind from/ knotsBaromVisibWave heightAir tempDewpointWater temp
2014-Nov-01 08:04N 36°19' E 014°38'1019.0
2014-Nov-01 07:33N 36°21' E 014°27'1616.3
2014-Nov-01 06:33N 36°28' E 014°08'1615.6
2014-Nov-01 05:33N 36°32' E 013°50'55915.4
2014-Oct-30 17:17N 37°09' E 002°13'1316.5
2014-Oct-30 16:30N 37°06' E 001°57'3316.0
2014-Oct-30 14:27N 36°59' E 001°17'1415.6
2014-Oct-30 13:32N 36°56' E 000°59'3815.9
2014-Oct-30 11:08N 36°47' E 000°13'26515.7
2014-Oct-29 18:16N 36°00' W 005°11'1115.4
2014-Oct-29 17:33N 35°58' W 005°24'10515.0
2014-Oct-29 10:33N 35°54' W 007°34'3815.4
2014-Oct-29 08:04N 35°54' W 008°21'1315.6
2014-Oct-29 07:15N 35°54' W 008°37'1115.9
2014-Oct-29 06:33N 35°54' W 008°51'1615.8
2014-Oct-29 05:33N 35°55' W 009°10'  
2014-Oct-26 23:33N 39°12' W 026°39'1616.0
2014-Oct-26 22:33N 39°13' W 026°60'1615.7
2014-Oct-26 21:33N 39°16' W 027°20'1615.6
2014-Oct-26 20:34N 39°18' W 027°40'1615.8
2014-Oct-26 19:33N 39°19' W 028°00'1615.8
2014-Oct-26 18:33N 39°17' W 028°20'1615.5
2014-Oct-26 17:33N 39°15' W 028°40'1615.6
2014-Oct-26 16:34N 39°13' W 029°00'1616.0
2014-Oct-26 15:33N 39°10' W 029°20'1615.7
2014-Oct-26 14:33N 39°07' W 029°40'1616.0
2014-Oct-26 13:33N 39°05' W 030°01'1615.8
2014-Oct-26 12:33N 39°05' W 030°21'1615.9
2014-Oct-26 11:33N 39°05' W 030°42'1616.0
2014-Oct-26 10:33N 39°05' W 031°02'1615.9
2014-Oct-26 09:33N 39°05' W 031°23'1715.9
2014-Oct-26 08:31N 39°05' W 031°44'1515.8
2014-Oct-26 07:33N 39°05' W 032°03'  

Dump ship's entire track history